sensor_id;sensor_type;location;lat;lon;timestamp;temperature;humidity
16814;DHT22;8524;57.650;11.926;2022-10-23T00:01:19;10.80;99.90
16814;DHT22;8524;57.650;11.926;2022-10-23T00:03:49;10.80;99.90
16814;DHT22;8524;57.650;11.926;2022-10-23T00:06:17;10.80;99.90
16814;DHT22;8524;57.650;11.926;2022-10-23T00:08:46;10.80;99.90
16814;DHT22;8524;57.650;11.926;2022-10-23T00:11:16;10.80;99.90
16814;DHT22;8524;57.650;11.926;2022-10-23T00:13:43;10.80;99.90
16814;DHT22;8524;57.650;11.926;2022-10-23T00:16:10;10.90;99.90
16814;DHT22;8524;57.650;11.926;2022-10-23T00:18:38;10.80;99.90
16814;DHT22;8524;57.650;11.926;2022-10-23T00:21:06;10.80;99.90
16814;DHT22;8524;57.650;11.926;2022-10-23T00:23:33;10.90;99.90
16814;DHT22;8524;57.650;11.926;2022-10-23T00:26:02;10.90;99.90
16814;DHT22;8524;57.650;11.926;2022-10-23T00:28:29;10.90;99.90
16814;DHT22;8524;57.650;11.926;2022-10-23T00:30:56;10.90;99.90
16814;DHT22;8524;57.650;11.926;2022-10-23T00:33:23;10.80;99.90
16814;DHT22;8524;57.650;11.926;2022-10-23T00:35:50;10.90;99.90
16814;DHT22;8524;57.650;11.926;2022-10-23T00:38:17;10.80;99.90
16814;DHT22;8524;57.650;11.926;2022-10-23T00:40:44;10.90;99.90
16814;DHT22;8524;57.650;11.926;2022-10-23T00:43:17;10.80;99.90
16814;DHT22;8524;57.650;11.926;2022-10-23T00:45:45;10.80;99.90
16814;DHT22;8524;57.650;11.926;2022-10-23T00:48:12;10.90;99.90
16814;DHT22;8524;57.650;11.926;2022-10-23T00:50:40;10.90;99.90
16814;DHT22;8524;57.650;11.926;2022-10-23T00:53:09;10.90;99.90
16814;DHT22;8524;57.650;11.926;2022-10-23T00:55:38;10.90;99.90
16814;DHT22;8524;57.650;11.926;2022-10-23T00:58:06;10.90;99.90
16814;DHT22;8524;57.650;11.926;2022-10-23T01:00:43;10.90;99.90
16814;DHT22;8524;57.650;11.926;2022-10-23T01:03:10;10.80;99.90
16814;DHT22;8524;57.650;11.926;2022-10-23T01:05:45;10.80;99.90
16814;DHT22;8524;57.650;11.926;2022-10-23T01:08:18;10.90;99.90
16814;DHT22;8524;57.650;11.926;2022-10-23T01:10:51;10.90;99.90
16814;DHT22;8524;57.650;11.926;2022-10-23T01:13:31;10.90;99.90
16814;DHT22;8524;57.650;11.926;2022-10-23T01:16:06;10.90;99.90
16814;DHT22;8524;57.650;11.926;2022-10-23T01:18:39;10.90;99.90
16814;DHT22;8524;57.650;11.926;2022-10-23T01:21:10;10.90;99.90
16814;DHT22;8524;57.650;11.926;2022-10-23T01:24:09;10.90;99.90
16814;DHT22;8524;57.650;11.926;2022-10-23T01:26:49;10.90;99.90
16814;DHT22;8524;57.650;11.926;2022-10-23T01:29:24;10.90;99.90
16814;DHT22;8524;57.650;11.926;2022-10-23T01:31:57;10.90;99.90
16814;DHT22;8524;57.650;11.926;2022-10-23T01:34:29;10.90;99.90
16814;DHT22;8524;57.650;11.926;2022-10-23T01:37:00;10.90;99.90
16814;DHT22;8524;57.650;11.926;2022-10-23T01:39:32;10.90;99.90
16814;DHT22;8524;57.650;11.926;2022-10-23T01:42:04;10.90;99.90
16814;DHT22;8524;57.650;11.926;2022-10-23T01:44:36;10.90;99.90
16814;DHT22;8524;57.650;11.926;2022-10-23T01:47:07;10.90;99.90
16814;DHT22;8524;57.650;11.926;2022-10-23T01:49:36;10.90;99.90
16814;DHT22;8524;57.650;11.926;2022-10-23T01:52:07;11.00;99.90
16814;DHT22;8524;57.650;11.926;2022-10-23T01:54:37;11.00;99.90
16814;DHT22;8524;57.650;11.926;2022-10-23T01:57:08;11.00;99.90
16814;DHT22;8524;57.650;11.926;2022-10-23T01:59:40;11.00;99.90
16814;DHT22;8524;57.650;11.926;2022-10-23T02:02:09;11.00;99.90
16814;DHT22;8524;57.650;11.926;2022-10-23T02:04:39;11.00;99.90
16814;DHT22;8524;57.650;11.926;2022-10-23T02:07:07;11.00;99.90
16814;DHT22;8524;57.650;11.926;2022-10-23T02:09:34;11.00;99.90
16814;DHT22;8524;57.650;11.926;2022-10-23T02:12:06;11.00;99.90
16814;DHT22;8524;57.650;11.926;2022-10-23T02:14:42;11.00;99.90
16814;DHT22;8524;57.650;11.926;2022-10-23T02:17:14;11.10;99.90
16814;DHT22;8524;57.650;11.926;2022-10-23T02:19:46;11.10;99.90
16814;DHT22;8524;57.650;11.926;2022-10-23T02:22:20;11.00;99.90
16814;DHT22;8524;57.650;11.926;2022-10-23T02:24:51;11.00;99.90
16814;DHT22;8524;57.650;11.926;2022-10-23T02:27:24;11.00;99.90
16814;DHT22;8524;57.650;11.926;2022-10-23T02:29:57;11.10;99.90
16814;DHT22;8524;57.650;11.926;2022-10-23T02:32:27;11.10;99.90
16814;DHT22;8524;57.650;11.926;2022-10-23T02:34:55;11.10;99.90
16814;DHT22;8524;57.650;11.926;2022-10-23T02:37:22;11.10;99.90
16814;DHT22;8524;57.650;11.926;2022-10-23T02:39:50;11.10;99.90
16814;DHT22;8524;57.650;11.926;2022-10-23T02:42:18;11.10;99.90
16814;DHT22;8524;57.650;11.926;2022-10-23T02:44:56;11.20;99.90
16814;DHT22;8524;57.650;11.926;2022-10-23T02:47:45;11.20;99.90
16814;DHT22;8524;57.650;11.926;2022-10-23T02:50:21;11.20;99.90
16814;DHT22;8524;57.650;11.926;2022-10-23T02:52:54;11.20;99.90
16814;DHT22;8524;57.650;11.926;2022-10-23T02:55:30;11.20;99.90
16814;DHT22;8524;57.650;11.926;2022-10-23T02:58:05;11.30;99.90
16814;DHT22;8524;57.650;11.926;2022-10-23T03:00:37;11.30;99.90
16814;DHT22;8524;57.650;11.926;2022-10-23T03:03:09;11.30;99.90
16814;DHT22;8524;57.650;11.926;2022-10-23T03:05:38;11.30;99.90
16814;DHT22;8524;57.650;11.926;2022-10-23T03:08:12;11.30;99.90
16814;DHT22;8524;57.650;11.926;2022-10-23T03:10:39;11.30;99.90
16814;DHT22;8524;57.650;11.926;2022-10-23T03:13:08;11.30;99.90
16814;DHT22;8524;57.650;11.926;2022-10-23T03:15:36;11.40;99.90
16814;DHT22;8524;57.650;11.926;2022-10-23T03:18:03;11.40;99.90
16814;DHT22;8524;57.650;11.926;2022-10-23T03:20:30;11.40;99.90
16814;DHT22;8524;57.650;11.926;2022-10-23T03:22:57;11.40;99.90
16814;DHT22;8524;57.650;11.926;2022-10-23T03:25:24;11.40;99.90
16814;DHT22;8524;57.650;11.926;2022-10-23T03:27:51;11.40;99.90
16814;DHT22;8524;57.650;11.926;2022-10-23T03:30:18;11.50;99.90
16814;DHT22;8524;57.650;11.926;2022-10-23T03:32:46;11.50;99.90
16814;DHT22;8524;57.650;11.926;2022-10-23T03:35:13;11.50;99.90
16814;DHT22;8524;57.650;11.926;2022-10-23T03:37:40;11.50;99.90
16814;DHT22;8524;57.650;11.926;2022-10-23T03:40:09;11.50;99.90
16814;DHT22;8524;57.650;11.926;2022-10-23T03:42:36;11.50;99.90
16814;DHT22;8524;57.650;11.926;2022-10-23T03:45:03;11.60;99.90
16814;DHT22;8524;57.650;11.926;2022-10-23T03:47:30;11.60;99.90
16814;DHT22;8524;57.650;11.926;2022-10-23T03:50:01;11.60;99.90
16814;DHT22;8524;57.650;11.926;2022-10-23T03:52:28;11.60;99.90
16814;DHT22;8524;57.650;11.926;2022-10-23T03:54:54;11.70;99.90
16814;DHT22;8524;57.650;11.926;2022-10-23T03:57:21;11.70;99.90
16814;DHT22;8524;57.650;11.926;2022-10-23T03:59:48;11.70;99.90
16814;DHT22;8524;57.650;11.926;2022-10-23T04:02:15;11.70;99.90
16814;DHT22;8524;57.650;11.926;2022-10-23T04:04:42;11.70;99.90
16814;DHT22;8524;57.650;11.926;2022-10-23T04:07:11;11.70;99.90
16814;DHT22;8524;57.650;11.926;2022-10-23T04:09:37;11.70;99.90
16814;DHT22;8524;57.650;11.926;2022-10-23T04:12:05;11.70;99.90
16814;DHT22;8524;57.650;11.926;2022-10-23T04:14:32;11.70;99.90
16814;DHT22;8524;57.650;11.926;2022-10-23T04:16:59;11.70;99.90
16814;DHT22;8524;57.650;11.926;2022-10-23T04:19:26;11.70;99.90
16814;DHT22;8524;57.650;11.926;2022-10-23T04:21:53;11.70;99.90
16814;DHT22;8524;57.650;11.926;2022-10-23T04:24:23;11.70;99.90
16814;DHT22;8524;57.650;11.926;2022-10-23T04:26:51;11.70;99.90
16814;DHT22;8524;57.650;11.926;2022-10-23T04:29:18;11.80;99.90
16814;DHT22;8524;57.650;11.926;2022-10-23T04:31:47;11.80;99.90
16814;DHT22;8524;57.650;11.926;2022-10-23T04:34:13;11.80;99.90
16814;DHT22;8524;57.650;11.926;2022-10-23T04:36:41;11.80;99.90
16814;DHT22;8524;57.650;11.926;2022-10-23T04:39:08;11.90;99.90
16814;DHT22;8524;57.650;11.926;2022-10-23T04:41:36;11.90;99.90
16814;DHT22;8524;57.650;11.926;2022-10-23T04:44:03;11.90;99.90
16814;DHT22;8524;57.650;11.926;2022-10-23T04:46:30;12.00;99.90
16814;DHT22;8524;57.650;11.926;2022-10-23T04:48:57;12.00;99.90
16814;DHT22;8524;57.650;11.926;2022-10-23T04:51:24;12.10;99.90
16814;DHT22;8524;57.650;11.926;2022-10-23T04:53:50;12.10;99.90
16814;DHT22;8524;57.650;11.926;2022-10-23T04:56:17;12.20;99.90
16814;DHT22;8524;57.650;11.926;2022-10-23T04:58:46;12.20;99.90
16814;DHT22;8524;57.650;11.926;2022-10-23T05:01:13;12.20;99.90
16814;DHT22;8524;57.650;11.926;2022-10-23T05:03:39;12.30;99.90
16814;DHT22;8524;57.650;11.926;2022-10-23T05:06:07;12.30;99.90
16814;DHT22;8524;57.650;11.926;2022-10-23T05:08:34;12.50;99.90
16814;DHT22;8524;57.650;11.926;2022-10-23T05:11:01;12.50;99.90
16814;DHT22;8524;57.650;11.926;2022-10-23T05:13:28;12.60;99.90
16814;DHT22;8524;57.650;11.926;2022-10-23T05:15:57;12.70;99.90
16814;DHT22;8524;57.650;11.926;2022-10-23T05:18:28;12.80;99.90
16814;DHT22;8524;57.650;11.926;2022-10-23T05:21:00;12.80;99.90
16814;DHT22;8524;57.650;11.926;2022-10-23T05:23:29;12.90;99.90
16814;DHT22;8524;57.650;11.926;2022-10-23T05:25:59;12.80;99.90
16814;DHT22;8524;57.650;11.926;2022-10-23T05:28:27;12.90;99.90
16814;DHT22;8524;57.650;11.926;2022-10-23T05:30:56;12.90;99.90
16814;DHT22;8524;57.650;11.926;2022-10-23T05:33:24;12.80;99.90
16814;DHT22;8524;57.650;11.926;2022-10-23T05:35:51;12.80;99.90
16814;DHT22;8524;57.650;11.926;2022-10-23T05:38:18;12.80;99.90
16814;DHT22;8524;57.650;11.926;2022-10-23T05:40:45;12.90;99.90
16814;DHT22;8524;57.650;11.926;2022-10-23T05:43:12;12.80;99.90
16814;DHT22;8524;57.650;11.926;2022-10-23T05:45:39;12.90;99.90
16814;DHT22;8524;57.650;11.926;2022-10-23T05:48:07;12.90;99.90
16814;DHT22;8524;57.650;11.926;2022-10-23T05:50:35;12.80;99.90
16814;DHT22;8524;57.650;11.926;2022-10-23T05:53:02;12.80;99.90
16814;DHT22;8524;57.650;11.926;2022-10-23T05:55:29;12.80;99.90
16814;DHT22;8524;57.650;11.926;2022-10-23T05:57:56;12.80;99.90
16814;DHT22;8524;57.650;11.926;2022-10-23T06:00:23;12.80;99.90
16814;DHT22;8524;57.650;11.926;2022-10-23T06:02:50;12.70;99.90
16814;DHT22;8524;57.650;11.926;2022-10-23T06:05:18;12.80;99.90
16814;DHT22;8524;57.650;11.926;2022-10-23T06:07:46;12.80;99.90
16814;DHT22;8524;57.650;11.926;2022-10-23T06:10:13;12.70;99.90
16814;DHT22;8524;57.650;11.926;2022-10-23T06:12:40;12.70;99.90
16814;DHT22;8524;57.650;11.926;2022-10-23T06:15:07;12.70;99.90
16814;DHT22;8524;57.650;11.926;2022-10-23T06:17:34;12.70;99.90
16814;DHT22;8524;57.650;11.926;2022-10-23T06:20:02;12.70;99.90
16814;DHT22;8524;57.650;11.926;2022-10-23T06:22:30;12.60;99.90
16814;DHT22;8524;57.650;11.926;2022-10-23T06:24:57;12.70;99.90
16814;DHT22;8524;57.650;11.926;2022-10-23T06:27:24;12.70;99.90
16814;DHT22;8524;57.650;11.926;2022-10-23T06:29:51;12.70;99.90
16814;DHT22;8524;57.650;11.926;2022-10-23T06:32:18;12.70;99.90
16814;DHT22;8524;57.650;11.926;2022-10-23T06:34:44;12.70;99.90
16814;DHT22;8524;57.650;11.926;2022-10-23T06:37:11;12.70;99.90
16814;DHT22;8524;57.650;11.926;2022-10-23T06:39:40;12.70;99.90
16814;DHT22;8524;57.650;11.926;2022-10-23T06:42:07;12.70;99.90
16814;DHT22;8524;57.650;11.926;2022-10-23T06:44:33;12.70;99.90
16814;DHT22;8524;57.650;11.926;2022-10-23T06:47:00;12.70;99.90
16814;DHT22;8524;57.650;11.926;2022-10-23T06:49:27;12.70;99.90
16814;DHT22;8524;57.650;11.926;2022-10-23T06:51:54;12.80;99.90
16814;DHT22;8524;57.650;11.926;2022-10-23T06:54:21;12.80;99.90
16814;DHT22;8524;57.650;11.926;2022-10-23T06:56:49;12.80;99.90
16814;DHT22;8524;57.650;11.926;2022-10-23T06:59:16;12.80;99.90
16814;DHT22;8524;57.650;11.926;2022-10-23T07:01:44;12.80;99.90
16814;DHT22;8524;57.650;11.926;2022-10-23T07:04:11;12.80;99.90
16814;DHT22;8524;57.650;11.926;2022-10-23T07:06:39;12.80;99.90
16814;DHT22;8524;57.650;11.926;2022-10-23T07:09:06;12.80;99.90
16814;DHT22;8524;57.650;11.926;2022-10-23T07:11:33;12.80;99.90
16814;DHT22;8524;57.650;11.926;2022-10-23T07:14:01;12.80;99.90
16814;DHT22;8524;57.650;11.926;2022-10-23T07:16:28;12.80;99.90
16814;DHT22;8524;57.650;11.926;2022-10-23T07:18:57;12.90;99.90
16814;DHT22;8524;57.650;11.926;2022-10-23T07:21:26;12.90;99.90
16814;DHT22;8524;57.650;11.926;2022-10-23T07:23:53;12.90;99.90
16814;DHT22;8524;57.650;11.926;2022-10-23T07:26:20;12.90;99.90
16814;DHT22;8524;57.650;11.926;2022-10-23T07:28:47;13.00;99.90
16814;DHT22;8524;57.650;11.926;2022-10-23T07:31:17;13.00;99.90
16814;DHT22;8524;57.650;11.926;2022-10-23T07:33:44;13.10;99.90
16814;DHT22;8524;57.650;11.926;2022-10-23T07:36:11;13.10;99.90
16814;DHT22;8524;57.650;11.926;2022-10-23T07:38:38;13.10;99.90
16814;DHT22;8524;57.650;11.926;2022-10-23T07:41:05;13.10;99.90
16814;DHT22;8524;57.650;11.926;2022-10-23T07:43:33;13.00;99.90
16814;DHT22;8524;57.650;11.926;2022-10-23T07:46:00;13.10;99.90
16814;DHT22;8524;57.650;11.926;2022-10-23T07:48:29;13.00;99.90
16814;DHT22;8524;57.650;11.926;2022-10-23T07:50:57;13.10;99.90
16814;DHT22;8524;57.650;11.926;2022-10-23T07:53:25;13.20;99.90
16814;DHT22;8524;57.650;11.926;2022-10-23T07:55:53;13.20;99.90
16814;DHT22;8524;57.650;11.926;2022-10-23T07:58:20;13.20;99.90
16814;DHT22;8524;57.650;11.926;2022-10-23T08:00:49;13.20;99.90
16814;DHT22;8524;57.650;11.926;2022-10-23T08:03:19;13.30;99.90
16814;DHT22;8524;57.650;11.926;2022-10-23T08:05:47;13.30;99.90
16814;DHT22;8524;57.650;11.926;2022-10-23T08:08:14;13.20;99.90
16814;DHT22;8524;57.650;11.926;2022-10-23T08:10:41;13.20;99.90
16814;DHT22;8524;57.650;11.926;2022-10-23T08:13:10;13.20;99.90
16814;DHT22;8524;57.650;11.926;2022-10-23T08:15:38;13.20;99.90
16814;DHT22;8524;57.650;11.926;2022-10-23T08:18:05;13.30;99.90
16814;DHT22;8524;57.650;11.926;2022-10-23T08:20:37;13.20;99.90
16814;DHT22;8524;57.650;11.926;2022-10-23T08:23:06;13.30;99.90
16814;DHT22;8524;57.650;11.926;2022-10-23T08:25:33;13.30;99.90
16814;DHT22;8524;57.650;11.926;2022-10-23T08:28:00;13.30;99.90
16814;DHT22;8524;57.650;11.926;2022-10-23T08:30:27;13.30;99.90
16814;DHT22;8524;57.650;11.926;2022-10-23T08:32:54;13.30;99.90
16814;DHT22;8524;57.650;11.926;2022-10-23T08:35:21;13.40;99.90
16814;DHT22;8524;57.650;11.926;2022-10-23T08:37:48;13.40;99.90
16814;DHT22;8524;57.650;11.926;2022-10-23T08:40:21;13.40;99.90
16814;DHT22;8524;57.650;11.926;2022-10-23T08:42:58;13.40;99.90
16814;DHT22;8524;57.650;11.926;2022-10-23T08:45:30;13.50;99.90
16814;DHT22;8524;57.650;11.926;2022-10-23T08:48:03;13.50;99.90
16814;DHT22;8524;57.650;11.926;2022-10-23T08:50:35;13.50;99.90
16814;DHT22;8524;57.650;11.926;2022-10-23T08:53:12;13.50;99.90
16814;DHT22;8524;57.650;11.926;2022-10-23T08:55:44;13.60;99.90
16814;DHT22;8524;57.650;11.926;2022-10-23T08:58:17;13.60;99.90
16814;DHT22;8524;57.650;11.926;2022-10-23T09:00:47;13.60;99.90
16814;DHT22;8524;57.650;11.926;2022-10-23T09:03:15;13.70;99.90
16814;DHT22;8524;57.650;11.926;2022-10-23T09:05:54;13.70;99.90
16814;DHT22;8524;57.650;11.926;2022-10-23T09:08:37;13.70;99.90
16814;DHT22;8524;57.650;11.926;2022-10-23T09:11:10;13.70;99.90
16814;DHT22;8524;57.650;11.926;2022-10-23T09:16:42;13.70;99.90
16814;DHT22;8524;57.650;11.926;2022-10-23T09:19:16;13.70;99.90
16814;DHT22;8524;57.650;11.926;2022-10-23T09:21:45;13.70;99.90
16814;DHT22;8524;57.650;11.926;2022-10-23T09:24:15;13.60;99.90
16814;DHT22;8524;57.650;11.926;2022-10-23T09:26:45;13.70;99.90
16814;DHT22;8524;57.650;11.926;2022-10-23T09:29:20;13.80;99.90
16814;DHT22;8524;57.650;11.926;2022-10-23T09:31:49;13.70;99.90
16814;DHT22;8524;57.650;11.926;2022-10-23T09:34:19;13.70;99.90
16814;DHT22;8524;57.650;11.926;2022-10-23T09:36:49;13.60;99.90
16814;DHT22;8524;57.650;11.926;2022-10-23T09:39:26;13.60;99.90
16814;DHT22;8524;57.650;11.926;2022-10-23T09:41:55;13.60;99.90
16814;DHT22;8524;57.650;11.926;2022-10-23T09:44:23;13.70;99.90
16814;DHT22;8524;57.650;11.926;2022-10-23T09:46:52;13.70;99.90
16814;DHT22;8524;57.650;11.926;2022-10-23T09:49:21;13.70;99.90
16814;DHT22;8524;57.650;11.926;2022-10-23T09:52:01;13.70;99.90
16814;DHT22;8524;57.650;11.926;2022-10-23T09:54:31;13.60;99.90
16814;DHT22;8524;57.650;11.926;2022-10-23T09:57:04;13.60;99.90
16814;DHT22;8524;57.650;11.926;2022-10-23T09:59:33;13.60;99.90
16814;DHT22;8524;57.650;11.926;2022-10-23T10:02:01;13.70;99.90
16814;DHT22;8524;57.650;11.926;2022-10-23T10:04:37;13.60;99.90
16814;DHT22;8524;57.650;11.926;2022-10-23T10:07:17;13.60;99.90
16814;DHT22;8524;57.650;11.926;2022-10-23T10:09:44;13.50;99.90
16814;DHT22;8524;57.650;11.926;2022-10-23T10:12:32;13.60;99.90
16814;DHT22;8524;57.650;11.926;2022-10-23T10:15:09;13.60;99.90
16814;DHT22;8524;57.650;11.926;2022-10-23T10:17:43;13.50;99.90
16814;DHT22;8524;57.650;11.926;2022-10-23T10:20:23;13.50;99.90
16814;DHT22;8524;57.650;11.926;2022-10-23T10:22:57;13.50;99.90
16814;DHT22;8524;57.650;11.926;2022-10-23T10:25:29;13.50;99.90
16814;DHT22;8524;57.650;11.926;2022-10-23T10:28:15;13.50;99.90
16814;DHT22;8524;57.650;11.926;2022-10-23T10:30:51;13.50;99.90
16814;DHT22;8524;57.650;11.926;2022-10-23T10:33:24;13.50;99.90
16814;DHT22;8524;57.650;11.926;2022-10-23T10:35:58;13.50;99.90
16814;DHT22;8524;57.650;11.926;2022-10-23T10:38:41;13.50;99.90
16814;DHT22;8524;57.650;11.926;2022-10-23T10:41:28;13.50;99.90
16814;DHT22;8524;57.650;11.926;2022-10-23T10:44:18;13.50;99.90
16814;DHT22;8524;57.650;11.926;2022-10-23T10:46:55;13.50;99.90
16814;DHT22;8524;57.650;11.926;2022-10-23T10:49:28;13.50;99.90
16814;DHT22;8524;57.650;11.926;2022-10-23T10:52:07;13.50;99.90
16814;DHT22;8524;57.650;11.926;2022-10-23T10:54:46;13.60;99.90
16814;DHT22;8524;57.650;11.926;2022-10-23T10:57:23;13.50;99.90
16814;DHT22;8524;57.650;11.926;2022-10-23T10:59:56;13.50;99.90
16814;DHT22;8524;57.650;11.926;2022-10-23T11:02:26;13.40;99.90
16814;DHT22;8524;57.650;11.926;2022-10-23T11:05:01;13.40;99.90
16814;DHT22;8524;57.650;11.926;2022-10-23T11:07:35;13.50;99.90
16814;DHT22;8524;57.650;11.926;2022-10-23T11:10:12;13.50;99.90
16814;DHT22;8524;57.650;11.926;2022-10-23T11:12:42;13.40;99.90
16814;DHT22;8524;57.650;11.926;2022-10-23T11:15:13;13.40;99.90
16814;DHT22;8524;57.650;11.926;2022-10-23T11:17:44;13.50;99.90
16814;DHT22;8524;57.650;11.926;2022-10-23T11:20:24;13.50;99.90
16814;DHT22;8524;57.650;11.926;2022-10-23T11:22:59;13.50;99.90
16814;DHT22;8524;57.650;11.926;2022-10-23T11:25:44;13.50;99.90
16814;DHT22;8524;57.650;11.926;2022-10-23T11:28:22;13.60;99.90
16814;DHT22;8524;57.650;11.926;2022-10-23T11:31:08;13.60;99.90
16814;DHT22;8524;57.650;11.926;2022-10-23T11:34:04;13.60;99.90
16814;DHT22;8524;57.650;11.926;2022-10-23T11:36:44;13.50;99.90
16814;DHT22;8524;57.650;11.926;2022-10-23T11:39:18;13.60;99.90
16814;DHT22;8524;57.650;11.926;2022-10-23T11:41:53;13.60;99.90
16814;DHT22;8524;57.650;11.926;2022-10-23T11:44:27;13.50;99.90
16814;DHT22;8524;57.650;11.926;2022-10-23T11:47:04;13.50;99.90
16814;DHT22;8524;57.650;11.926;2022-10-23T11:49:31;13.40;99.90
16814;DHT22;8524;57.650;11.926;2022-10-23T11:51:59;13.40;99.90
16814;DHT22;8524;57.650;11.926;2022-10-23T11:54:27;13.40;99.90
16814;DHT22;8524;57.650;11.926;2022-10-23T11:57:09;13.40;99.90
16814;DHT22;8524;57.650;11.926;2022-10-23T11:59:49;13.40;99.90
16814;DHT22;8524;57.650;11.926;2022-10-23T12:02:26;13.40;99.90
16814;DHT22;8524;57.650;11.926;2022-10-23T12:04:58;13.50;99.90
16814;DHT22;8524;57.650;11.926;2022-10-23T12:07:28;13.50;99.90
16814;DHT22;8524;57.650;11.926;2022-10-23T12:09:59;13.60;99.90
16814;DHT22;8524;57.650;11.926;2022-10-23T12:12:30;13.70;99.90
16814;DHT22;8524;57.650;11.926;2022-10-23T12:15:17;13.70;99.90
16814;DHT22;8524;57.650;11.926;2022-10-23T12:17:48;13.80;99.90
16814;DHT22;8524;57.650;11.926;2022-10-23T12:20:29;13.70;99.90
16814;DHT22;8524;57.650;11.926;2022-10-23T12:23:11;13.70;99.90
16814;DHT22;8524;57.650;11.926;2022-10-23T12:25:48;13.70;99.90
16814;DHT22;8524;57.650;11.926;2022-10-23T12:28:27;13.70;99.90
16814;DHT22;8524;57.650;11.926;2022-10-23T12:31:04;13.60;99.90
16814;DHT22;8524;57.650;11.926;2022-10-23T12:33:41;13.50;99.90
16814;DHT22;8524;57.650;11.926;2022-10-23T12:36:22;13.50;99.90
16814;DHT22;8524;57.650;11.926;2022-10-23T12:38:51;13.50;99.90
16814;DHT22;8524;57.650;11.926;2022-10-23T12:41:23;13.50;99.90
16814;DHT22;8524;57.650;11.926;2022-10-23T12:43:53;13.50;99.90
16814;DHT22;8524;57.650;11.926;2022-10-23T12:46:32;13.40;99.90
16814;DHT22;8524;57.650;11.926;2022-10-23T12:49:03;13.40;99.90
16814;DHT22;8524;57.650;11.926;2022-10-23T12:51:31;13.40;99.90
16814;DHT22;8524;57.650;11.926;2022-10-23T12:53:59;13.40;99.90
16814;DHT22;8524;57.650;11.926;2022-10-23T12:56:26;13.30;99.90
16814;DHT22;8524;57.650;11.926;2022-10-23T12:58:59;13.30;99.90
16814;DHT22;8524;57.650;11.926;2022-10-23T13:01:28;13.30;99.90
16814;DHT22;8524;57.650;11.926;2022-10-23T13:03:58;13.30;99.90
16814;DHT22;8524;57.650;11.926;2022-10-23T13:06:29;13.30;99.90
16814;DHT22;8524;57.650;11.926;2022-10-23T13:08:57;13.30;99.90
16814;DHT22;8524;57.650;11.926;2022-10-23T13:11:24;13.30;99.90
16814;DHT22;8524;57.650;11.926;2022-10-23T13:13:52;13.30;99.90
16814;DHT22;8524;57.650;11.926;2022-10-23T13:16:21;13.30;99.90
16814;DHT22;8524;57.650;11.926;2022-10-23T13:18:48;13.30;99.90
16814;DHT22;8524;57.650;11.926;2022-10-23T13:21:18;13.40;99.90
16814;DHT22;8524;57.650;11.926;2022-10-23T13:23:47;13.40;99.90
16814;DHT22;8524;57.650;11.926;2022-10-23T13:26:24;13.40;99.90
16814;DHT22;8524;57.650;11.926;2022-10-23T13:28:54;13.40;99.90
16814;DHT22;8524;57.650;11.926;2022-10-23T13:31:29;13.40;99.90
16814;DHT22;8524;57.650;11.926;2022-10-23T13:34:06;13.40;99.90
16814;DHT22;8524;57.650;11.926;2022-10-23T13:36:49;13.30;99.90
16814;DHT22;8524;57.650;11.926;2022-10-23T13:39:22;13.30;99.90
16814;DHT22;8524;57.650;11.926;2022-10-23T13:41:50;13.20;99.90
16814;DHT22;8524;57.650;11.926;2022-10-23T13:44:19;13.20;99.90
16814;DHT22;8524;57.650;11.926;2022-10-23T13:46:47;13.10;99.90
16814;DHT22;8524;57.650;11.926;2022-10-23T13:49:14;13.00;99.90
16814;DHT22;8524;57.650;11.926;2022-10-23T13:51:42;13.10;99.90
16814;DHT22;8524;57.650;11.926;2022-10-23T13:54:14;13.00;99.90
16814;DHT22;8524;57.650;11.926;2022-10-23T13:56:43;13.00;99.90
16814;DHT22;8524;57.650;11.926;2022-10-23T13:59:10;13.00;99.90
16814;DHT22;8524;57.650;11.926;2022-10-23T14:01:37;13.00;99.90
16814;DHT22;8524;57.650;11.926;2022-10-23T14:04:05;12.90;99.90
16814;DHT22;8524;57.650;11.926;2022-10-23T14:06:32;13.00;99.90
16814;DHT22;8524;57.650;11.926;2022-10-23T14:09:03;12.90;99.90
16814;DHT22;8524;57.650;11.926;2022-10-23T14:11:30;12.90;99.90
16814;DHT22;8524;57.650;11.926;2022-10-23T14:13:59;12.90;99.90
16814;DHT22;8524;57.650;11.926;2022-10-23T14:16:26;12.90;99.90
16814;DHT22;8524;57.650;11.926;2022-10-23T14:18:53;12.90;99.90
16814;DHT22;8524;57.650;11.926;2022-10-23T14:21:21;12.90;99.90
16814;DHT22;8524;57.650;11.926;2022-10-23T14:23:49;12.80;99.90
16814;DHT22;8524;57.650;11.926;2022-10-23T14:26:18;12.80;99.90
16814;DHT22;8524;57.650;11.926;2022-10-23T14:28:45;12.80;99.90
16814;DHT22;8524;57.650;11.926;2022-10-23T14:31:14;12.80;99.90
16814;DHT22;8524;57.650;11.926;2022-10-23T14:33:43;12.80;99.90
16814;DHT22;8524;57.650;11.926;2022-10-23T14:36:11;12.80;99.90
16814;DHT22;8524;57.650;11.926;2022-10-23T14:38:38;12.70;99.90
16814;DHT22;8524;57.650;11.926;2022-10-23T14:41:09;12.70;99.90
16814;DHT22;8524;57.650;11.926;2022-10-23T14:43:36;12.70;99.90
16814;DHT22;8524;57.650;11.926;2022-10-23T14:46:08;12.70;99.90
16814;DHT22;8524;57.650;11.926;2022-10-23T14:48:36;12.70;99.90
16814;DHT22;8524;57.650;11.926;2022-10-23T14:51:05;12.70;99.90
16814;DHT22;8524;57.650;11.926;2022-10-23T14:53:32;12.60;99.90
16814;DHT22;8524;57.650;11.926;2022-10-23T14:56:01;12.60;99.90
16814;DHT22;8524;57.650;11.926;2022-10-23T14:58:28;12.60;99.90
16814;DHT22;8524;57.650;11.926;2022-10-23T15:00:58;12.60;99.90
16814;DHT22;8524;57.650;11.926;2022-10-23T15:03:25;12.60;99.90
16814;DHT22;8524;57.650;11.926;2022-10-23T15:05:54;12.60;99.90
16814;DHT22;8524;57.650;11.926;2022-10-23T15:08:21;12.60;99.90
16814;DHT22;8524;57.650;11.926;2022-10-23T15:10:49;12.60;99.90
16814;DHT22;8524;57.650;11.926;2022-10-23T15:13:15;12.60;99.90
16814;DHT22;8524;57.650;11.926;2022-10-23T15:15:43;12.50;99.90
16814;DHT22;8524;57.650;11.926;2022-10-23T15:18:10;12.50;99.90
16814;DHT22;8524;57.650;11.926;2022-10-23T15:20:37;12.50;99.90
16814;DHT22;8524;57.650;11.926;2022-10-23T15:23:05;12.50;99.90
16814;DHT22;8524;57.650;11.926;2022-10-23T15:25:32;12.50;99.90
16814;DHT22;8524;57.650;11.926;2022-10-23T15:27:59;12.40;99.90
16814;DHT22;8524;57.650;11.926;2022-10-23T15:30:26;12.40;99.90
16814;DHT22;8524;57.650;11.926;2022-10-23T15:32:52;12.40;99.90
16814;DHT22;8524;57.650;11.926;2022-10-23T15:35:19;12.40;99.90
16814;DHT22;8524;57.650;11.926;2022-10-23T15:37:46;12.50;99.90
16814;DHT22;8524;57.650;11.926;2022-10-23T15:40:14;12.40;99.90
16814;DHT22;8524;57.650;11.926;2022-10-23T15:42:41;12.40;99.90
16814;DHT22;8524;57.650;11.926;2022-10-23T15:45:09;12.40;99.90
16814;DHT22;8524;57.650;11.926;2022-10-23T15:47:38;12.40;99.90
16814;DHT22;8524;57.650;11.926;2022-10-23T15:50:06;12.40;99.90
16814;DHT22;8524;57.650;11.926;2022-10-23T15:52:33;12.40;99.90